createdAt,value
2023-03-21T00:01:53.347Z,18.70
2023-03-21T00:04:23.727Z,32.57
2023-03-21T00:06:52.605Z,27.70
2023-03-21T00:09:21.266Z,26.27
2023-03-21T00:11:49.767Z,23.73
2023-03-21T00:14:20.258Z,17.30
2023-03-21T00:16:51.285Z,29.00
2023-03-21T00:19:21.017Z,20.37
2023-03-21T00:22:06.631Z,26.97
2023-03-21T00:24:36.679Z,25.00
2023-03-21T00:27:34.279Z,25.83
2023-03-21T00:29:54.144Z,25.37
2023-03-21T00:32:23.154Z,26.40
2023-03-21T00:35:11.927Z,13.53
2023-03-21T00:37:42.029Z,24.20
2023-03-21T00:40:25.337Z,23.13
2023-03-21T00:42:56.100Z,17.20
2023-03-21T00:45:24.448Z,23.87
2023-03-21T00:47:52.936Z,22.37
2023-03-21T00:50:22.454Z,37.07
2023-03-21T00:52:52.231Z,14.97
2023-03-21T00:55:21.319Z,21.13
2023-03-21T00:57:56.153Z,25.07
2023-03-21T01:00:28.117Z,20.40
2023-03-21T01:03:17.650Z,18.50
2023-03-21T01:06:06.929Z,17.70
2023-03-21T01:08:51.289Z,19.90
2023-03-21T01:11:24.147Z,21.07
2023-03-21T01:14:07.229Z,31.10
2023-03-21T01:16:40.254Z,23.47
2023-03-21T01:19:22.194Z,22.60
2023-03-21T01:21:53.110Z,20.53
2023-03-21T01:24:23.033Z,15.20
2023-03-21T01:26:51.579Z,17.53
2023-03-21T01:29:19.829Z,21.53
2023-03-21T01:31:48.333Z,25.30
2023-03-21T01:34:16.700Z,30.40
2023-03-21T01:36:45.318Z,29.70
2023-03-21T01:39:13.712Z,26.23
2023-03-21T01:41:44.793Z,12.87
2023-03-21T01:44:17.832Z,18.57
2023-03-21T01:47:03.637Z,32.07
2023-03-21T01:49:41.726Z,14.97
2023-03-21T01:52:21.110Z,19.97
2023-03-21T01:54:57.462Z,20.10
2023-03-21T01:57:42.425Z,19.73
2023-03-21T02:00:15.605Z,28.67
2023-03-21T02:02:52.673Z,17.67
2023-03-21T02:05:29.008Z,14.23
2023-03-21T02:07:57.530Z,15.67
2023-03-21T02:10:26.196Z,15.60
2023-03-21T02:12:58.260Z,20.03
2023-03-21T02:15:28.316Z,12.50
2023-03-21T02:18:04.106Z,26.33
2023-03-21T02:20:51.237Z,32.47
2023-03-21T02:24:08.700Z,14.70
2023-03-21T02:27:03.555Z,19.87
2023-03-21T02:30:01.468Z,16.63
2023-03-21T02:32:38.775Z,18.03
2023-03-21T02:35:31.734Z,22.03
2023-03-21T02:38:09.324Z,20.93
2023-03-21T02:40:43.656Z,24.50
2023-03-21T02:43:23.484Z,21.43
2023-03-21T02:45:56.125Z,11.00
2023-03-21T02:48:35.519Z,14.47
2023-03-21T02:51:17.288Z,20.50
2023-03-21T02:54:04.609Z,16.70
2023-03-21T02:56:40.505Z,15.80
2023-03-21T02:59:09.540Z,29.70
2023-03-21T03:01:38.264Z,15.83
2023-03-21T03:04:18.659Z,13.80
2023-03-21T03:07:04.700Z,21.87
2023-03-21T03:09:48.362Z,14.00
2023-03-21T03:12:26.196Z,15.70
2023-03-21T03:15:04.434Z,17.07
2023-03-21T03:17:51.459Z,22.40
2023-03-21T03:20:27.289Z,20.43
2023-03-21T03:23:08.080Z,16.53
2023-03-21T03:25:44.700Z,12.83
2023-03-21T03:28:16.472Z,18.33
2023-03-21T03:31:00.875Z,13.33
2023-03-21T03:33:36.333Z,17.20
2023-03-21T03:36:07.051Z,14.70
2023-03-21T03:38:38.300Z,11.23
2023-03-21T03:41:12.105Z,13.10
2023-03-21T03:43:48.884Z,12.37
2023-03-21T03:46:20.312Z,25.40
2023-03-21T03:48:53.501Z,15.93
2023-03-21T03:51:25.816Z,17.77
2023-03-21T03:53:58.698Z,14.13
2023-03-21T03:56:29.052Z,22.00
2023-03-21T03:58:58.580Z,23.03
2023-03-21T04:01:27.029Z,20.93
2023-03-21T04:04:10.428Z,11.27
2023-03-21T04:06:41.548Z,18.60
2023-03-21T04:09:20.632Z,15.90
2023-03-21T04:11:51.760Z,18.03
2023-03-21T04:14:20.041Z,16.83
2023-03-21T04:16:49.285Z,30.33
2023-03-21T04:19:18.426Z,16.03
2023-03-21T04:21:47.763Z,18.10
2023-03-21T04:24:17.365Z,24.57
2023-03-21T04:26:45.857Z,20.83
2023-03-21T04:29:15.577Z,20.37
2023-03-21T04:31:43.983Z,15.60
2023-03-21T04:34:12.693Z,15.70
2023-03-21T04:36:44.260Z,16.97
2023-03-21T04:39:17.302Z,22.30
2023-03-21T04:41:47.388Z,23.87
2023-03-21T04:44:18.252Z,19.33
2023-03-21T04:46:46.637Z,24.30
2023-03-21T04:49:14.974Z,18.40
2023-03-21T04:51:44.203Z,31.50
2023-03-21T04:56:42.975Z,29.10
2023-03-21T04:59:14.193Z,21.00
2023-03-21T05:01:44.982Z,15.53
2023-03-21T05:04:15.801Z,18.50
2023-03-21T05:06:45.060Z,24.00
2023-03-21T05:09:14.220Z,14.97
2023-03-21T05:11:42.922Z,17.97
2023-03-21T05:14:13.430Z,19.60
2023-03-21T05:16:45.257Z,17.20
2023-03-21T05:19:14.059Z,18.73
2023-03-21T05:21:42.788Z,25.83
2023-03-21T05:24:14.537Z,20.80
2023-03-21T05:26:44.248Z,26.00
2023-03-21T05:29:13.420Z,21.27
2023-03-21T05:31:43.186Z,18.07
2023-03-21T05:34:11.488Z,24.10
2023-03-21T05:36:39.736Z,21.03
2023-03-21T05:39:08.479Z,23.47
2023-03-21T05:41:36.806Z,22.43
2023-03-21T05:44:05.164Z,19.97
2023-03-21T05:46:33.722Z,21.80
2023-03-21T05:49:03.474Z,16.30
2023-03-21T05:51:31.719Z,26.17
2023-03-21T05:54:00.024Z,21.40
2023-03-21T05:56:28.463Z,24.67
2023-03-21T05:58:56.672Z,23.67
2023-03-21T06:01:24.970Z,29.73
2023-03-21T06:03:53.375Z,17.07
2023-03-21T06:06:23.361Z,20.77
2023-03-21T06:08:51.591Z,28.37
2023-03-21T06:11:25.962Z,18.00
2023-03-21T06:13:54.214Z,23.67
2023-03-21T06:16:22.544Z,24.30
2023-03-21T06:18:50.947Z,22.77
2023-03-21T06:21:19.341Z,21.87
2023-03-21T06:23:51.672Z,23.93
2023-03-21T06:26:23.128Z,20.03
2023-03-21T06:28:51.498Z,19.70
2023-03-21T06:31:22.517Z,22.07
2023-03-21T06:33:51.766Z,25.00
2023-03-21T06:36:20.763Z,21.63
2023-03-21T06:38:50.724Z,38.00
2023-03-21T06:41:19.177Z,45.33
2023-03-21T06:43:48.573Z,74.57
2023-03-21T06:46:17.104Z,57.13
2023-03-21T06:48:45.755Z,29.97
2023-03-21T06:51:15.107Z,26.67
2023-03-21T06:53:44.685Z,24.57
2023-03-21T06:56:16.144Z,69.73
2023-03-21T06:58:44.429Z,51.83
2023-03-21T07:01:12.722Z,24.80
2023-03-21T07:03:41.068Z,33.23
2023-03-21T07:06:12.001Z,33.40
2023-03-21T07:08:41.184Z,20.33
2023-03-21T07:11:10.761Z,24.40
2023-03-21T07:13:40.599Z,25.47
2023-03-21T07:16:10.329Z,26.40
2023-03-21T07:18:38.952Z,32.13
2023-03-21T07:21:07.742Z,21.03
2023-03-21T07:23:36.201Z,23.40
2023-03-21T07:26:04.545Z,28.07
2023-03-21T07:28:33.641Z,21.43
2023-03-21T07:31:05.498Z,25.03
2023-03-21T07:33:34.690Z,45.83
2023-03-21T07:36:04.541Z,21.30
2023-03-21T07:38:32.821Z,28.60
2023-03-21T07:41:01.718Z,24.60
2023-03-21T07:43:30.286Z,24.40
2023-03-21T07:45:59.501Z,24.53
2023-03-21T07:48:29.646Z,33.33
2023-03-21T07:50:58.140Z,32.57
2023-03-21T07:53:26.539Z,22.10
2023-03-21T07:55:56.967Z,26.47
2023-03-21T07:58:25.720Z,25.30
2023-03-21T08:00:55.780Z,26.00
2023-03-21T08:03:26.487Z,31.43
2023-03-21T08:05:57.006Z,27.97
2023-03-21T08:08:25.353Z,25.37
2023-03-21T08:10:53.693Z,23.87
2023-03-21T08:13:23.090Z,32.23
2023-03-21T08:15:51.469Z,22.83
2023-03-21T08:18:19.811Z,33.47
2023-03-21T08:20:52.264Z,25.23
2023-03-21T08:23:22.969Z,29.70
2023-03-21T08:25:53.302Z,26.63
2023-03-21T08:28:22.478Z,38.33
2023-03-21T08:30:51.699Z,24.80
2023-03-21T08:33:20.698Z,22.73
2023-03-21T08:35:49.477Z,24.47
2023-03-21T08:38:18.200Z,23.10
2023-03-21T08:40:47.957Z,36.43
2023-03-21T08:43:16.418Z,36.67
2023-03-21T08:45:44.681Z,25.03
2023-03-21T08:48:13.042Z,25.03
2023-03-21T08:50:41.489Z,32.70
2023-03-21T08:53:09.720Z,28.50
2023-03-21T08:55:38.570Z,32.43
2023-03-21T08:58:08.475Z,30.93
2023-03-21T09:00:36.941Z,32.83
2023-03-21T09:03:05.485Z,29.73
2023-03-21T09:05:33.860Z,28.30
2023-03-21T09:08:03.560Z,30.73
2023-03-21T09:10:31.838Z,32.80
2023-03-21T09:13:00.176Z,36.17
2023-03-21T09:15:29.958Z,45.77
2023-03-21T09:18:13.148Z,36.70
2023-03-21T09:20:43.120Z,23.67
2023-03-21T09:23:12.383Z,30.03
2023-03-21T09:25:40.964Z,30.30
2023-03-21T09:28:09.816Z,31.73
2023-03-21T09:30:39.505Z,23.33
2023-03-21T09:33:13.175Z,28.47
2023-03-21T09:35:42.864Z,33.07
2023-03-21T09:38:11.286Z,29.37
2023-03-21T09:40:58.331Z,26.47
2023-03-21T09:43:38.593Z,33.40
2023-03-21T09:46:13.245Z,43.93
2023-03-21T09:48:57.113Z,29.03
2023-03-21T09:51:30.321Z,40.40
2023-03-21T09:54:03.917Z,32.77
2023-03-21T09:56:32.391Z,34.40
2023-03-21T09:59:03.306Z,29.60
2023-03-21T10:01:34.670Z,28.30
2023-03-21T10:04:06.446Z,37.87
2023-03-21T10:06:39.263Z,37.17
2023-03-21T10:09:09.801Z,28.77
2023-03-21T10:11:45.026Z,31.03
2023-03-21T10:14:22.138Z,34.40
2023-03-21T10:16:55.844Z,37.70
2023-03-21T10:19:24.562Z,25.43
2023-03-21T10:22:02.740Z,46.37
2023-03-21T10:24:34.552Z,32.77
2023-03-21T10:27:05.677Z,30.47
2023-03-21T10:29:40.031Z,36.30
2023-03-21T10:32:13.068Z,41.23
2023-03-21T10:34:45.067Z,34.37
2023-03-21T10:37:15.314Z,44.07
2023-03-21T10:39:45.100Z,38.83
2023-03-21T10:42:22.362Z,29.73
2023-03-21T10:44:53.467Z,38.77
2023-03-21T10:47:26.170Z,38.30
2023-03-21T10:50:11.312Z,36.03
2023-03-21T10:52:46.555Z,33.50
2023-03-21T10:55:24.594Z,35.13
2023-03-21T10:57:59.117Z,28.10
2023-03-21T11:00:31.507Z,32.33
2023-03-21T11:03:03.410Z,30.07
2023-03-21T11:05:37.650Z,28.90
2023-03-21T11:08:11.884Z,43.90
2023-03-21T11:10:52.551Z,34.40
2023-03-21T11:13:26.504Z,40.37
2023-03-21T11:15:56.855Z,43.07
2023-03-21T11:18:29.040Z,41.83
2023-03-21T11:20:59.841Z,23.37
2023-03-21T11:23:31.803Z,46.67
2023-03-21T11:26:01.961Z,36.33
2023-03-21T11:28:38.690Z,31.23
2023-03-21T11:31:09.342Z,33.47
2023-03-21T11:33:41.714Z,36.13
2023-03-21T11:36:33.796Z,34.23
2023-03-21T11:39:15.560Z,39.37
2023-03-21T11:41:44.590Z,26.43
2023-03-21T11:44:28.954Z,34.40
2023-03-21T11:46:57.511Z,39.43
2023-03-21T11:49:27.999Z,31.57
2023-03-21T11:52:12.538Z,38.80
2023-03-21T11:55:05.879Z,36.97
2023-03-21T11:57:40.769Z,24.77
2023-03-21T12:00:18.349Z,36.90
2023-03-21T12:03:21.964Z,26.23
2023-03-21T12:05:55.583Z,21.33
2023-03-21T12:08:38.796Z,28.87
2023-03-21T12:11:16.777Z,29.77
2023-03-21T12:13:55.956Z,25.03
2023-03-21T12:16:35.026Z,26.13
2023-03-21T12:19:34.459Z,33.23
2023-03-21T12:22:12.139Z,30.50
2023-03-21T12:24:45.607Z,26.17
2023-03-21T12:27:25.437Z,43.90
2023-03-21T12:30:11.420Z,39.93
2023-03-21T12:32:54.658Z,27.80
2023-03-21T12:35:38.070Z,36.83
2023-03-21T12:38:17.214Z,28.17
2023-03-21T12:41:02.948Z,23.23
2023-03-21T12:43:41.412Z,25.57
2023-03-21T12:46:18.478Z,27.57
2023-03-21T12:48:50.816Z,28.97
2023-03-21T12:51:24.271Z,23.70
2023-03-21T12:54:07.406Z,41.53
2023-03-21T12:56:41.129Z,33.77
2023-03-21T12:59:22.006Z,26.20
2023-03-21T13:01:55.790Z,28.10
2023-03-21T13:04:51.540Z,25.37
2023-03-21T13:07:25.313Z,33.90
2023-03-21T13:09:57.057Z,36.83
2023-03-21T13:12:43.251Z,43.50
2023-03-21T13:15:52.485Z,37.57
2023-03-21T13:18:30.069Z,42.10
2023-03-21T13:21:00.179Z,37.43
2023-03-21T13:23:36.309Z,45.37
2023-03-21T13:26:11.329Z,36.13
2023-03-21T13:28:41.865Z,59.13
2023-03-21T13:31:21.456Z,32.67
2023-03-21T13:33:51.530Z,37.30
2023-03-21T13:36:26.719Z,45.47
2023-03-21T13:39:00.769Z,44.10
2023-03-21T13:41:34.718Z,51.00
2023-03-21T13:44:20.152Z,45.87
2023-03-21T13:46:56.388Z,35.60
2023-03-21T13:49:31.265Z,33.67
2023-03-21T13:52:02.412Z,46.13
2023-03-21T13:54:48.771Z,49.53
2023-03-21T13:57:39.551Z,38.50
2023-03-21T14:00:25.799Z,43.53
2023-03-21T14:03:03.750Z,36.40
2023-03-21T14:05:33.653Z,38.97
2023-03-21T14:08:15.370Z,34.03
2023-03-21T14:10:49.174Z,42.43
2023-03-21T14:13:22.040Z,28.17
2023-03-21T14:15:56.315Z,34.03
2023-03-21T14:18:41.077Z,43.73
2023-03-21T14:21:23.694Z,50.13
2023-03-21T14:23:58.737Z,38.10
2023-03-21T14:26:28.976Z,40.20
2023-03-21T14:28:59.899Z,44.73
2023-03-21T14:31:28.469Z,38.33
2023-03-21T14:33:59.735Z,43.23
2023-03-21T14:36:30.936Z,41.13
2023-03-21T14:39:05.736Z,37.13
2023-03-21T14:41:35.266Z,32.73
2023-03-21T14:44:16.012Z,33.03
2023-03-21T14:46:45.234Z,40.10
2023-03-21T14:49:23.157Z,36.73
2023-03-21T14:51:53.236Z,47.90
2023-03-21T14:54:22.001Z,42.93
2023-03-21T14:56:53.461Z,43.70
2023-03-21T14:59:27.860Z,45.70
2023-03-21T15:01:56.376Z,59.50
2023-03-21T15:04:24.714Z,53.20
2023-03-21T15:06:59.382Z,44.50
2023-03-21T15:09:31.919Z,42.93
2023-03-21T15:12:02.990Z,46.70
2023-03-21T15:14:36.631Z,43.47
2023-03-21T15:17:07.687Z,70.93
2023-03-21T15:19:39.154Z,39.93
2023-03-21T15:22:17.886Z,36.83
2023-03-21T15:24:51.078Z,41.20
2023-03-21T15:27:21.548Z,46.43
2023-03-21T15:29:54.230Z,41.53
2023-03-21T15:32:26.469Z,41.33
2023-03-21T15:34:56.683Z,40.93
2023-03-21T15:37:27.605Z,49.57
2023-03-21T15:40:11.461Z,49.60
2023-03-21T15:42:41.942Z,52.23
2023-03-21T15:45:20.098Z,51.00
2023-03-21T15:48:00.776Z,53.07
2023-03-21T15:50:35.468Z,44.27
2023-03-21T15:53:07.561Z,41.90
2023-03-21T15:55:48.179Z,43.43
2023-03-21T15:58:19.721Z,39.90
2023-03-21T16:00:55.252Z,45.43
2023-03-21T16:03:28.419Z,42.50
2023-03-21T16:06:04.792Z,46.37
2023-03-21T16:08:37.627Z,42.73
2023-03-21T16:11:15.579Z,40.87
2023-03-21T16:13:43.961Z,46.27
2023-03-21T16:16:18.934Z,53.23
2023-03-21T16:18:47.358Z,43.70
2023-03-21T16:21:19.444Z,41.60
2023-03-21T16:23:48.348Z,44.80
2023-03-21T16:26:18.948Z,48.60
2023-03-21T16:28:47.872Z,71.50
2023-03-21T16:31:19.173Z,49.53
2023-03-21T16:33:48.880Z,43.37
2023-03-21T16:36:19.241Z,48.67
2023-03-21T16:38:49.670Z,48.57
2023-03-21T16:41:18.989Z,46.53
2023-03-21T16:43:47.867Z,48.93
2023-03-21T16:46:19.827Z,60.83
2023-03-21T16:48:51.037Z,63.50
2023-03-21T16:51:21.666Z,68.33
2023-03-21T16:53:51.526Z,48.00
2023-03-21T16:56:23.088Z,52.57
2023-03-21T16:58:51.703Z,42.90
2023-03-21T17:01:26.121Z,53.13
2023-03-21T17:03:55.612Z,58.50
2023-03-21T17:06:26.007Z,60.90
2023-03-21T17:08:55.073Z,58.70
2023-03-21T17:11:25.092Z,38.73
2023-03-21T17:13:55.112Z,47.80
2023-03-21T17:16:27.331Z,46.73
2023-03-21T17:18:56.445Z,40.67
2023-03-21T17:21:26.868Z,51.50
2023-03-21T17:23:55.438Z,50.03
2023-03-21T17:26:26.067Z,36.83
2023-03-21T17:28:55.516Z,46.67
2023-03-21T17:31:27.098Z,60.07
2023-03-21T17:33:55.501Z,57.47
2023-03-21T17:36:28.059Z,57.10
2023-03-21T17:38:56.658Z,53.20
2023-03-21T17:41:25.922Z,55.30
2023-03-21T17:43:55.790Z,55.23
2023-03-21T17:46:27.357Z,48.23
2023-03-21T17:48:56.855Z,51.17
2023-03-21T17:51:30.182Z,55.70
2023-03-21T17:53:58.668Z,62.57
2023-03-21T17:56:30.040Z,58.27
2023-03-21T17:58:59.758Z,48.20
2023-03-21T18:01:30.925Z,41.80
2023-03-21T18:03:59.807Z,52.27
2023-03-21T18:06:28.605Z,53.43
2023-03-21T18:08:57.550Z,50.60
2023-03-21T18:11:28.090Z,52.73
2023-03-21T18:14:09.878Z,39.80
2023-03-21T18:16:44.348Z,38.30
2023-03-21T18:19:13.974Z,39.40
2023-03-21T18:21:45.250Z,44.90
2023-03-21T18:24:14.323Z,36.50
2023-03-21T18:26:42.935Z,42.77
2023-03-21T18:32:07.308Z,43.87
2023-03-21T18:34:37.344Z,49.00
2023-03-21T18:37:07.978Z,33.40
2023-03-21T18:39:37.280Z,33.60
2023-03-21T18:42:06.488Z,47.33
2023-03-21T18:44:39.306Z,32.37
2023-03-21T18:47:10.826Z,36.07
2023-03-21T18:52:28.154Z,34.20
2023-03-21T18:54:56.469Z,35.47
2023-03-21T18:57:36.356Z,39.73
2023-03-21T19:00:11.105Z,36.30
2023-03-21T19:02:45.660Z,40.37
2023-03-21T19:05:16.224Z,33.93
2023-03-21T19:07:44.651Z,36.23
2023-03-21T19:10:18.889Z,42.20
2023-03-21T19:12:48.048Z,27.27
2023-03-21T19:15:19.616Z,32.30
2023-03-21T19:20:39.028Z,33.60
2023-03-21T19:23:09.670Z,30.03
2023-03-21T19:25:39.270Z,41.87
2023-03-21T19:28:08.450Z,33.77
2023-03-21T19:30:37.586Z,36.43
2023-03-21T19:33:07.628Z,28.20
2023-03-21T19:35:40.992Z,40.90
2023-03-21T19:38:09.412Z,32.43
2023-03-21T19:40:40.685Z,32.47
2023-03-21T19:43:31.098Z,27.77
2023-03-21T19:46:00.767Z,21.93
2023-03-21T19:48:30.909Z,33.90
2023-03-21T19:51:26.722Z,25.23
2023-03-21T19:53:50.709Z,30.60
2023-03-21T19:56:23.079Z,29.73
2023-03-21T19:58:52.101Z,33.13
2023-03-21T20:01:20.710Z,29.40
2023-03-21T20:03:50.640Z,43.07
2023-03-21T20:06:19.220Z,30.63
2023-03-21T20:11:36.586Z,32.23
2023-03-21T20:14:05.517Z,35.37
2023-03-21T20:16:35.629Z,31.03
2023-03-21T20:19:08.840Z,29.90
2023-03-21T20:21:52.244Z,30.37
2023-03-21T20:24:24.944Z,29.23
2023-03-21T20:26:53.797Z,48.20
2023-03-21T20:30:07.521Z,47.60
2023-03-21T20:32:10.688Z,27.80
2023-03-21T20:34:40.425Z,23.47
2023-03-21T20:37:08.738Z,21.97
2023-03-21T20:39:37.199Z,22.53
2023-03-21T20:42:06.112Z,30.17
2023-03-21T20:45:03.052Z,32.53
2023-03-21T20:47:23.814Z,26.17
2023-03-21T20:49:55.220Z,25.20
2023-03-21T20:55:13.549Z,25.83
2023-03-21T20:57:42.322Z,19.00
2023-03-21T21:00:15.017Z,30.77
2023-03-21T21:02:45.091Z,28.87
2023-03-21T21:05:27.408Z,26.40
2023-03-21T21:07:57.343Z,23.87
2023-03-21T21:10:26.292Z,26.07
2023-03-21T21:12:54.771Z,29.37
2023-03-21T21:15:23.065Z,23.60
2023-03-21T21:18:08.700Z,26.47
2023-03-21T21:20:39.217Z,21.87
2023-03-21T21:23:09.656Z,18.50
2023-03-21T21:25:38.204Z,16.27
2023-03-21T21:28:09.575Z,18.20
2023-03-21T21:30:39.496Z,18.37
2023-03-21T21:33:08.022Z,18.73
2023-03-21T21:35:37.056Z,14.63
2023-03-21T21:38:07.126Z,23.47
2023-03-21T21:40:35.444Z,24.67
2023-03-21T21:43:03.992Z,26.43
2023-03-21T21:45:32.426Z,22.63
2023-03-21T21:48:00.890Z,17.93
2023-03-21T21:50:29.225Z,17.70
2023-03-21T21:52:58.018Z,22.23
2023-03-21T21:55:27.737Z,20.97
2023-03-21T21:57:58.206Z,29.70
2023-03-21T22:00:27.915Z,17.80
2023-03-21T22:02:56.322Z,27.83
2023-03-21T22:05:24.791Z,24.10
2023-03-21T22:07:55.191Z,16.60
2023-03-21T22:10:25.768Z,15.80
2023-03-21T22:12:55.556Z,12.43
2023-03-21T22:15:23.959Z,20.00
2023-03-21T22:17:52.410Z,16.23
2023-03-21T22:20:25.722Z,20.93
2023-03-21T22:22:56.706Z,15.20
2023-03-21T22:25:25.829Z,23.43
2023-03-21T22:27:55.607Z,22.13
2023-03-21T22:30:24.709Z,17.13
2023-03-21T22:33:08.011Z,22.03
2023-03-21T22:35:37.564Z,12.40
2023-03-21T22:38:08.998Z,18.07
2023-03-21T22:40:38.817Z,29.70
2023-03-21T22:43:09.326Z,21.23
2023-03-21T22:45:37.688Z,28.60
2023-03-21T22:48:08.521Z,25.33
2023-03-21T22:50:37.179Z,22.60
2023-03-21T22:53:05.645Z,28.13
2023-03-21T22:55:34.011Z,25.43
2023-03-21T22:58:02.542Z,30.97
2023-03-21T23:00:32.763Z,23.50
2023-03-21T23:03:01.204Z,23.00
2023-03-21T23:05:29.600Z,22.27
2023-03-21T23:07:58.091Z,29.93
2023-03-21T23:10:26.500Z,22.77
2023-03-21T23:12:54.830Z,31.53
2023-03-21T23:15:23.133Z,22.67
2023-03-21T23:17:53.003Z,20.73
2023-03-21T23:20:21.375Z,23.23
2023-03-21T23:22:49.665Z,25.93
2023-03-21T23:25:20.584Z,21.60
2023-03-21T23:27:49.497Z,32.00
2023-03-21T23:30:17.763Z,18.57
2023-03-21T23:32:46.019Z,22.80
2023-03-21T23:35:15.847Z,17.77
2023-03-21T23:37:52.655Z,21.23
2023-03-21T23:40:22.002Z,25.30
2023-03-21T23:42:50.672Z,24.40
2023-03-21T23:45:19.076Z,23.60
2023-03-21T23:47:47.520Z,24.83
2023-03-21T23:53:02.177Z,20.33
2023-03-21T23:55:30.678Z,19.20
2023-03-21T23:58:00.061Z,24.37
